Time;durP1;ratioP1;P1;durP2;ratioP2;P2;SDS_P1;SDS_P2;PMS_P1;PMS_P2;Temp;Humidity;BMP_temperature;BMP_pressure;BME280_temperature;BME280_humidity;BME280_pressure;Samples;Min_cycle;Max_cycle;Signal;HPM_P1;HPM_P2
2022/01/07 00:01:42;;;;;;;21.13;6.35;;;5.00;99.30;;;;;;5034154;28;20045;-82
2022/01/07 00:04:08;;;;;;;19.45;5.43;;;5.00;99.20;;;;;;5034388;28;20076;-82
2022/01/07 00:06:33;;;;;;;17.50;5.78;;;4.90;99.30;;;;;;5018154;28;20111;-83
2022/01/07 00:08:59;;;;;;;19.65;5.15;;;5.00;99.40;;;;;;5034687;28;20049;-82
2022/01/07 00:11:25;;;;;;;18.38;4.88;;;4.90;99.30;;;;;;5034733;28;20099;-82
2022/01/07 00:13:50;;;;;;;16.20;5.18;;;4.90;99.20;;;;;;5035077;28;20049;-83
2022/01/07 00:16:16;;;;;;;19.30;5.28;;;4.90;99.30;;;;;;5034171;28;20084;-82
2022/01/07 00:18:44;;;;;;;13.57;4.57;;;4.90;99.40;;;;;;5034420;28;20060;-83
2022/01/07 00:21:10;;;;;;;21.10;5.60;;;5.00;99.20;;;;;;5034049;28;20057;-82
2022/01/07 00:23:36;;;;;;;17.25;4.95;;;4.80;99.30;;;;;;5033842;28;20045;-83
2022/01/07 00:26:02;;;;;;;17.73;5.35;;;5.00;99.40;;;;;;5034266;28;20048;-82
2022/01/07 00:28:28;;;;;;;20.67;5.95;;;4.90;99.40;;;;;;5001594;28;20080;-83
2022/01/07 00:30:54;;;;;;;19.20;5.38;;;5.00;99.60;;;;;;5034339;28;20080;-82
2022/01/07 00:33:19;;;;;;;21.63;5.80;;;5.00;99.40;;;;;;5017588;28;20057;-82
2022/01/07 00:35:46;;;;;;;21.67;5.50;;;5.00;99.60;;;;;;5017604;28;20042;-83
2022/01/07 00:38:12;;;;;;;18.20;5.93;;;5.00;99.60;;;;;;5017543;28;20091;-83
2022/01/07 00:40:38;;;;;;;27.02;6.18;;;5.10;99.90;;;;;;5016987;28;20041;-83
2022/01/07 00:43:04;;;;;;;17.77;5.47;;;5.00;99.90;;;;;;5034056;28;20042;-82
2022/01/07 00:45:30;;;;;;;27.27;6.88;;;5.00;99.90;;;;;;5033853;28;20051;-82
2022/01/07 00:47:57;;;;;;;15.40;5.82;;;5.00;99.90;;;;;;5017601;28;20057;-83
2022/01/07 00:50:26;;;;;;;16.48;5.55;;;5.00;99.90;;;;;;5017446;28;20050;-83
2022/01/07 00:52:52;;;;;;;25.58;7.28;;;4.70;99.90;;;;;;5033739;28;20084;-82
2022/01/07 00:55:18;;;;;;;21.55;6.22;;;4.60;99.90;;;;;;5033424;28;20084;-82
2022/01/07 00:57:45;;;;;;;30.55;7.38;;;4.90;99.90;;;;;;5033719;28;20080;-82
2022/01/07 01:00:14;;;;;;;17.42;6.35;;;4.70;99.90;;;;;;5033672;28;20052;-82
2022/01/07 01:02:40;;;;;;;25.05;5.70;;;4.60;99.90;;;;;;5033565;28;20055;-82
2022/01/07 01:05:08;;;;;;;26.75;7.63;;;4.50;99.90;;;;;;5016977;28;20057;-82
2022/01/07 01:07:34;;;;;;;34.03;7.30;;;4.60;99.90;;;;;;5033504;28;20053;-83
2022/01/07 01:10:01;;;;;;;25.65;7.80;;;4.50;99.90;;;;;;5033199;28;20556;-82
2022/01/07 01:12:27;;;;;;;21.98;8.35;;;4.50;99.90;;;;;;5033069;28;20085;-82
2022/01/07 01:14:53;;;;;;;23.95;7.50;;;4.50;99.90;;;;;;5033353;28;20140;-82
2022/01/07 01:17:19;;;;;;;23.15;6.95;;;4.60;99.90;;;;;;5016807;28;20045;-83
2022/01/07 01:19:45;;;;;;;17.45;6.07;;;4.30;99.90;;;;;;5016622;28;20045;-83
2022/01/07 01:22:10;;;;;;;25.50;7.80;;;4.40;99.90;;;;;;5033183;28;20183;-82
2022/01/07 01:24:36;;;;;;;19.60;7.05;;;4.20;99.90;;;;;;4999966;28;20037;-82
2022/01/07 01:27:02;;;;;;;19.60;6.88;;;4.30;99.90;;;;;;5033198;28;20060;-82
2022/01/07 01:29:28;;;;;;;19.88;6.60;;;4.30;99.90;;;;;;5033139;28;20045;-83
2022/01/07 01:31:54;;;;;;;17.30;5.95;;;4.30;99.90;;;;;;5016865;28;20057;-83
2022/01/07 01:34:20;;;;;;;17.27;6.18;;;4.20;99.90;;;;;;5000007;28;20095;-82
2022/01/07 01:36:45;;;;;;;16.88;5.47;;;4.10;99.90;;;;;;5000290;28;20041;-82
2022/01/07 01:39:12;;;;;;;15.93;6.22;;;4.00;99.90;;;;;;5032969;28;20532;-82
2022/01/07 01:41:40;;;;;;;22.58;7.18;;;4.00;99.90;;;;;;5032951;28;20053;-82
2022/01/07 01:44:06;;;;;;;17.52;6.13;;;4.10;99.90;;;;;;5032696;28;20053;-83
2022/01/07 01:46:31;;;;;;;18.10;6.68;;;4.00;99.90;;;;;;5032884;28;20389;-83
2022/01/07 01:48:57;;;;;;;16.38;6.90;;;4.10;99.90;;;;;;5032825;28;20075;-83
2022/01/07 01:51:23;;;;;;;20.10;6.70;;;4.10;99.90;;;;;;5016004;28;20056;-83
2022/01/07 01:53:49;;;;;;;21.52;7.32;;;4.20;99.90;;;;;;5032482;28;20053;-83
2022/01/07 01:56:15;;;;;;;21.13;7.82;;;4.00;99.90;;;;;;5016001;28;20047;-83
2022/01/07 01:58:41;;;;;;;23.02;7.30;;;3.90;99.90;;;;;;5032648;28;20053;-82
2022/01/07 02:01:07;;;;;;;19.45;6.85;;;3.80;99.90;;;;;;5032730;28;20370;-83
2022/01/07 02:03:33;;;;;;;17.73;6.65;;;3.90;99.90;;;;;;5032691;28;20057;-83
2022/01/07 02:05:59;;;;;;;18.13;7.32;;;3.90;99.90;;;;;;5032514;28;20057;-82
2022/01/07 02:08:25;;;;;;;20.85;7.40;;;4.00;99.90;;;;;;5032524;28;20100;-82
2022/01/07 02:10:51;;;;;;;13.15;6.38;;;4.00;99.90;;;;;;5016100;28;20396;-83
2022/01/07 02:13:17;;;;;;;20.05;7.60;;;4.10;99.90;;;;;;5032871;28;20400;-83
2022/01/07 02:15:43;;;;;;;16.13;6.38;;;4.00;99.90;;;;;;5031983;28;20041;-84
2022/01/07 02:18:09;;;;;;;13.20;6.65;;;4.00;99.90;;;;;;5033356;28;20047;-83
2022/01/07 02:20:35;;;;;;;19.63;8.05;;;3.80;99.90;;;;;;5032529;28;20049;-82
2022/01/07 02:23:01;;;;;;;19.23;6.90;;;3.90;99.90;;;;;;5032505;28;20165;-83
2022/01/07 02:25:27;;;;;;;19.23;8.77;;;3.90;99.90;;;;;;5031785;28;20045;-83
2022/01/07 02:27:54;;;;;;;26.83;8.25;;;3.90;99.90;;;;;;5032704;28;20049;-83
2022/01/07 02:30:23;;;;;;;18.42;8.32;;;4.00;99.90;;;;;;5032630;28;20484;-83
2022/01/07 02:32:49;;;;;;;22.08;7.88;;;3.90;99.90;;;;;;5032667;28;20463;-82
2022/01/07 02:35:17;;;;;;;20.35;7.60;;;4.00;99.90;;;;;;5032105;28;20089;-83
2022/01/07 02:37:42;;;;;;;18.60;7.80;;;4.00;99.90;;;;;;5015807;28;20041;-82
2022/01/07 02:40:09;;;;;;;13.98;7.35;;;4.00;99.90;;;;;;5032399;28;20041;-83
2022/01/07 02:42:36;;;;;;;20.20;7.85;;;4.00;99.90;;;;;;5032394;28;20451;-83
2022/01/07 02:45:05;;;;;;;14.48;7.20;;;3.90;99.90;;;;;;5032130;28;20037;-83
2022/01/07 02:47:37;;;;;;;27.45;8.00;;;3.90;99.90;;;;;;5032300;28;20061;-83
2022/01/07 02:50:05;;;;;;;14.93;7.03;;;3.90;99.90;;;;;;5032421;28;20476;-82
2022/01/07 02:52:31;;;;;;;18.27;7.43;;;3.80;99.90;;;;;;5032008;28;20500;-82
2022/01/07 02:54:58;;;;;;;17.05;8.77;;;3.80;99.90;;;;;;5031834;28;20050;-83
2022/01/07 02:57:23;;;;;;;19.13;7.68;;;3.80;99.90;;;;;;5015826;28;20053;-83
2022/01/07 02:59:49;;;;;;;17.10;8.88;;;3.70;99.90;;;;;;5032211;28;20045;-83
2022/01/07 03:02:15;;;;;;;16.25;8.50;;;3.90;99.90;;;;;;5032405;28;20199;-83
2022/01/07 03:04:40;;;;;;;18.27;8.82;;;3.80;99.90;;;;;;5018885;28;20061;-83
2022/01/07 03:07:07;;;;;;;19.20;8.27;;;3.70;99.90;;;;;;5019351;28;20053;-82
2022/01/07 03:09:33;;;;;;;16.85;8.48;;;3.70;99.90;;;;;;5019375;28;20374;-82
2022/01/07 03:11:59;;;;;;;17.48;9.35;;;3.60;99.90;;;;;;5035737;28;20059;-82
2022/01/07 03:14:25;;;;;;;17.73;9.27;;;3.90;99.90;;;;;;5019211;28;20046;-82
2022/01/07 03:16:51;;;;;;;20.40;9.15;;;3.80;99.90;;;;;;5019223;28;20489;-83
2022/01/07 03:19:17;;;;;;;23.05;9.63;;;3.70;99.90;;;;;;5018978;28;20041;-83
2022/01/07 03:21:43;;;;;;;18.00;9.20;;;3.70;99.90;;;;;;5019079;28;20059;-82
2022/01/07 03:24:08;;;;;;;18.77;7.65;;;3.70;99.90;;;;;;5018535;28;20048;-82
2022/01/07 03:26:34;;;;;;;18.38;9.55;;;3.60;99.90;;;;;;5035396;28;20132;-83
2022/01/07 03:29:00;;;;;;;16.67;8.93;;;3.70;99.90;;;;;;5035413;28;20460;-83
2022/01/07 03:31:26;;;;;;;17.92;8.98;;;3.60;99.90;;;;;;5018926;28;20099;-83
2022/01/07 03:33:51;;;;;;;22.02;9.80;;;3.70;99.90;;;;;;5035311;28;20088;-82
2022/01/07 03:36:17;;;;;;;23.23;9.55;;;3.60;99.90;;;;;;5018742;28;20132;-83
2022/01/07 03:38:43;;;;;;;18.95;8.88;;;3.70;99.90;;;;;;5035426;28;20046;-82
2022/01/07 03:41:09;;;;;;;16.88;10.07;;;3.70;99.90;;;;;;5035519;28;20137;-83
2022/01/07 03:43:34;;;;;;;21.15;9.38;;;3.70;99.90;;;;;;5051765;28;20087;-83
2022/01/07 03:46:00;;;;;;;22.20;10.95;;;3.80;99.90;;;;;;5035046;28;20335;-83
2022/01/07 03:48:26;;;;;;;21.58;10.48;;;3.80;99.90;;;;;;5035067;28;20399;-83
2022/01/07 03:50:52;;;;;;;22.33;11.60;;;3.80;99.90;;;;;;5051673;28;20494;-83
2022/01/07 03:53:17;;;;;;;23.77;10.65;;;3.90;99.90;;;;;;5035487;28;20107;-82
2022/01/07 03:55:43;;;;;;;20.85;10.82;;;3.90;99.90;;;;;;5017945;28;20052;-83
2022/01/07 03:58:09;;;;;;;20.45;9.95;;;3.90;99.90;;;;;;5018343;28;20045;-83
2022/01/07 04:00:39;;;;;;;18.80;10.18;;;3.90;99.90;;;;;;5002016;28;20049;-83
2022/01/07 04:03:14;;;;;;;19.10;9.82;;;4.00;99.90;;;;;;5018245;28;20060;-82
2022/01/07 04:05:40;;;;;;;20.83;10.00;;;4.10;99.90;;;;;;5034173;28;20385;-83
2022/01/07 04:08:07;;;;;;;20.55;10.20;;;3.90;99.90;;;;;;5017958;28;20489;-84
2022/01/07 04:10:34;;;;;;;19.33;9.88;;;4.00;99.90;;;;;;5034540;28;20050;-83
2022/01/07 04:13:00;;;;;;;25.35;11.52;;;4.00;99.90;;;;;;5018206;28;20045;-83
2022/01/07 04:15:26;;;;;;;18.08;10.32;;;3.90;99.90;;;;;;5017102;28;20076;-83
2022/01/07 04:17:53;;;;;;;22.20;11.40;;;4.00;99.90;;;;;;5018037;28;20084;-83
2022/01/07 04:20:24;;;;;;;19.15;9.95;;;4.10;99.90;;;;;;5017719;28;20045;-83
2022/01/07 04:22:51;;;;;;;20.25;10.80;;;4.00;99.90;;;;;;5034285;28;20610;-83
2022/01/07 04:25:18;;;;;;;31.05;10.88;;;4.00;99.90;;;;;;5001021;28;20042;-83
2022/01/07 04:27:53;;;;;;;25.48;12.98;;;4.10;99.90;;;;;;5034331;28;20472;-83
2022/01/07 04:30:21;;;;;;;20.60;12.02;;;4.30;99.90;;;;;;5034434;28;20057;-83
2022/01/07 04:32:48;;;;;;;21.58;12.40;;;4.30;99.90;;;;;;5034126;28;20056;-83
2022/01/07 04:35:16;;;;;;;22.80;11.55;;;4.30;99.90;;;;;;5050740;28;20056;-83
2022/01/07 04:37:42;;;;;;;19.98;11.43;;;4.20;99.90;;;;;;5017718;28;20064;-83
2022/01/07 04:40:14;;;;;;;21.90;11.57;;;4.20;99.90;;;;;;5017632;28;20150;-83
2022/01/07 04:42:40;;;;;;;21.10;9.65;;;4.20;99.90;;;;;;5018000;28;20054;-83
2022/01/07 04:45:07;;;;;;;22.73;10.32;;;4.20;99.90;;;;;;5017300;28;20049;-83
2022/01/07 04:47:36;;;;;;;17.58;10.02;;;4.20;99.90;;;;;;5033904;28;20053;-83
2022/01/07 04:50:04;;;;;;;20.77;11.07;;;4.40;99.90;;;;;;5001869;28;20103;-83
2022/01/07 04:52:29;;;;;;;21.23;11.68;;;4.50;99.90;;;;;;5033820;28;20049;-84
2022/01/07 04:54:56;;;;;;;26.00;12.90;;;4.20;99.90;;;;;;5031724;28;20473;-84
2022/01/07 04:57:22;;;;;;;21.58;11.90;;;4.20;99.90;;;;;;5015999;28;20072;-83
2022/01/07 04:59:47;;;;;;;25.65;12.88;;;4.20;99.90;;;;;;5049889;28;20041;-84
2022/01/07 05:02:13;;;;;;;26.15;10.18;;;4.30;99.90;;;;;;5050172;28;20045;-82
2022/01/07 05:04:39;;;;;;;22.40;11.88;;;4.20;99.90;;;;;;5016838;28;20068;-83
2022/01/07 05:07:04;;;;;;;24.65;10.63;;;4.20;99.90;;;;;;5017366;28;20107;-83
2022/01/07 05:09:30;;;;;;;20.52;10.82;;;4.20;99.90;;;;;;5033522;28;20393;-83
2022/01/07 05:11:56;;;;;;;20.85;11.00;;;4.20;99.90;;;;;;5033386;28;20042;-83
2022/01/07 05:14:21;;;;;;;18.35;10.07;;;4.30;99.90;;;;;;5033387;28;20060;-83
2022/01/07 05:16:47;;;;;;;17.52;10.20;;;4.20;99.90;;;;;;5016838;28;20049;-83
2022/01/07 05:19:13;;;;;;;20.33;10.70;;;4.20;99.90;;;;;;5016609;28;20057;-83
2022/01/07 05:21:39;;;;;;;23.83;10.73;;;4.20;99.90;;;;;;5016968;28;20132;-83
2022/01/07 05:24:05;;;;;;;21.05;10.60;;;4.40;99.90;;;;;;5016559;28;20038;-83
2022/01/07 05:26:31;;;;;;;19.65;10.85;;;4.40;99.90;;;;;;4999480;28;20195;-83
2022/01/07 05:28:57;;;;;;;18.75;11.32;;;4.40;99.90;;;;;;5016820;28;20045;-83
2022/01/07 05:31:24;;;;;;;21.52;12.20;;;4.40;99.90;;;;;;5032992;28;20063;-83
2022/01/07 05:33:54;;;;;;;18.23;9.35;;;4.50;99.90;;;;;;5016798;28;20428;-83
2022/01/07 05:36:20;;;;;;;16.75;9.93;;;4.40;99.90;;;;;;5033024;28;20045;-83
2022/01/07 05:38:46;;;;;;;22.58;11.02;;;4.60;99.90;;;;;;5033030;28;20477;-83
2022/01/07 05:41:12;;;;;;;20.58;10.00;;;4.40;99.90;;;;;;5033055;28;20045;-83
2022/01/07 05:43:38;;;;;;;22.92;10.52;;;4.60;99.90;;;;;;5049520;28;20048;-83
2022/01/07 05:46:04;;;;;;;17.75;8.73;;;4.40;99.90;;;;;;5032617;28;20045;-83
2022/01/07 05:48:30;;;;;;;18.52;9.70;;;4.40;99.90;;;;;;5032786;28;20061;-83
2022/01/07 05:50:56;;;;;;;20.42;10.23;;;4.40;99.90;;;;;;5032825;28;20056;-83
2022/01/07 05:53:21;;;;;;;21.48;9.77;;;4.50;99.90;;;;;;5049408;28;20124;-83
2022/01/07 05:55:47;;;;;;;17.70;10.20;;;4.40;99.90;;;;;;5016009;28;20370;-83
2022/01/07 05:58:13;;;;;;;14.60;8.40;;;4.60;99.90;;;;;;5016212;28;20049;-83
2022/01/07 06:00:38;;;;;;;17.80;10.30;;;4.60;99.90;;;;;;5032640;28;20049;-83
2022/01/07 06:03:04;;;;;;;21.10;11.35;;;4.50;99.90;;;;;;5016114;28;20042;-84
2022/01/07 06:05:30;;;;;;;18.15;10.82;;;4.70;99.90;;;;;;5032645;28;20499;-83
2022/01/07 06:07:56;;;;;;;22.15;11.52;;;4.40;99.90;;;;;;5016012;28;20053;-83
2022/01/07 06:10:21;;;;;;;19.27;10.02;;;4.60;99.90;;;;;;5016300;28;20081;-83
2022/01/07 06:12:47;;;;;;;15.57;9.48;;;4.60;99.90;;;;;;5049404;28;20068;-82
2022/01/07 06:15:13;;;;;;;17.73;10.27;;;4.50;99.90;;;;;;5016555;28;20499;-84
2022/01/07 06:17:38;;;;;;;20.23;10.07;;;4.50;99.90;;;;;;5049148;28;20055;-83
2022/01/07 06:20:06;;;;;;;20.23;10.73;;;4.60;99.90;;;;;;5032586;28;20048;-83
2022/01/07 06:22:32;;;;;;;17.88;9.63;;;4.60;99.90;;;;;;5032595;28;20087;-83
2022/01/07 06:24:58;;;;;;;21.08;11.55;;;4.60;99.90;;;;;;5031991;28;20099;-83
2022/01/07 06:27:24;;;;;;;20.92;10.23;;;4.70;99.90;;;;;;5032580;28;20432;-84
2022/01/07 06:29:49;;;;;;;18.92;10.30;;;4.80;99.90;;;;;;5032222;28;20045;-83
2022/01/07 06:32:15;;;;;;;16.92;9.98;;;4.60;99.90;;;;;;5032592;28;20479;-83
2022/01/07 06:34:41;;;;;;;22.40;11.05;;;4.50;99.90;;;;;;4999868;28;20045;-83
2022/01/07 06:37:06;;;;;;;17.20;10.32;;;4.70;99.90;;;;;;5032387;28;20049;-83
2022/01/07 06:39:32;;;;;;;17.50;10.60;;;4.50;99.90;;;;;;5036205;28;20084;-83
2022/01/07 06:41:59;;;;;;;22.45;11.20;;;4.60;99.90;;;;;;5052801;28;20045;-83
2022/01/07 06:44:26;;;;;;;18.55;11.27;;;4.80;99.90;;;;;;5019619;28;20041;-83
2022/01/07 06:46:52;;;;;;;19.90;11.88;;;4.80;99.90;;;;;;5019764;28;20374;-83
2022/01/07 06:49:18;;;;;;;25.35;13.63;;;4.70;99.90;;;;;;5019658;28;20049;-83
2022/01/07 06:51:44;;;;;;;18.55;11.20;;;4.70;99.90;;;;;;5036146;28;20080;-83
2022/01/07 06:54:11;;;;;;;17.65;10.02;;;4.80;99.90;;;;;;5035685;28;20045;-83
2022/01/07 06:56:41;;;;;;;23.50;11.40;;;4.50;99.90;;;;;;5019485;28;20049;-83
2022/01/07 06:59:07;;;;;;;28.00;12.50;;;4.60;99.90;;;;;;5052665;28;20386;-83
2022/01/07 07:01:33;;;;;;;25.08;13.15;;;4.60;99.90;;;;;;5052423;28;20042;-83
2022/01/07 07:03:59;;;;;;;26.33;11.85;;;4.60;99.90;;;;;;5019370;28;20045;-83
2022/01/07 07:06:25;;;;;;;19.63;12.27;;;4.60;99.90;;;;;;5035614;28;20496;-83
2022/01/07 07:08:51;;;;;;;19.92;11.07;;;4.60;99.90;;;;;;5019368;28;20080;-83
2022/01/07 07:11:16;;;;;;;22.70;12.60;;;4.60;99.90;;;;;;5018986;28;20057;-83
2022/01/07 07:13:42;;;;;;;18.80;10.20;;;4.50;99.90;;;;;;5019258;28;20042;-83
2022/01/07 07:16:08;;;;;;;22.95;11.68;;;4.40;99.90;;;;;;5035662;28;20456;-84
2022/01/07 07:18:34;;;;;;;24.70;12.75;;;4.50;99.90;;;;;;5052290;28;20443;-83
2022/01/07 07:21:00;;;;;;;25.60;12.88;;;4.60;99.90;;;;;;5035786;28;20045;-83
2022/01/07 07:23:25;;;;;;;22.02;13.15;;;4.70;99.90;;;;;;5018855;28;20056;-83
2022/01/07 07:25:51;;;;;;;27.80;13.07;;;4.70;99.90;;;;;;5034492;28;20045;-83
2022/01/07 07:28:18;;;;;;;20.42;12.27;;;4.90;99.90;;;;;;5018982;28;20093;-83
2022/01/07 07:30:44;;;;;;;25.23;13.20;;;4.90;99.90;;;;;;5052111;28;20045;-84
2022/01/07 07:38:40;;;;;;;32.72;16.27;;;5.00;99.90;;;;;;5035010;28;20055;-83
2022/01/07 07:41:10;;;;;;;22.95;13.30;;;5.00;99.90;;;;;;5035137;28;20389;-83
2022/01/07 07:43:37;;;;;;;25.23;14.63;;;4.90;99.90;;;;;;5035120;28;20046;-83
2022/01/07 07:46:03;;;;;;;27.73;15.95;;;4.80;99.90;;;;;;5018628;28;20400;-83
2022/01/07 07:48:30;;;;;;;29.40;15.50;;;4.90;99.90;;;;;;5051115;28;20047;-83
2022/01/07 07:50:55;;;;;;;29.27;15.60;;;5.00;99.90;;;;;;5033888;28;20045;-83
2022/01/07 07:53:21;;;;;;;27.40;14.45;;;5.10;99.90;;;;;;5018654;28;20049;-83
2022/01/07 07:55:53;;;;;;;28.73;14.82;;;5.10;99.90;;;;;;5018034;28;20056;-83
2022/01/07 07:58:24;;;;;;;34.72;16.88;;;5.20;99.90;;;;;;5035211;28;20041;-83
2022/01/07 08:00:50;;;;;;;27.70;15.38;;;5.30;99.90;;;;;;5018318;28;20065;-83
2022/01/07 08:03:17;;;;;;;30.48;17.15;;;5.20;99.90;;;;;;5051004;28;20053;-84
2022/01/07 08:05:43;;;;;;;30.15;15.90;;;5.10;99.90;;;;;;5050812;28;20145;-84
2022/01/07 08:08:09;;;;;;;31.17;17.77;;;5.20;99.90;;;;;;5034861;28;20179;-83
2022/01/07 08:10:35;;;;;;;40.47;18.77;;;5.20;99.90;;;;;;5034710;28;20116;-83
2022/01/07 08:18:23;;;;;;;34.63;19.33;;;5.20;99.90;;;;;;5034605;28;20566;-84
2022/01/07 08:20:50;;;;;;;41.15;21.45;;;5.30;99.90;;;;;;5034596;28;20041;-83
2022/01/07 08:23:16;;;;;;;40.17;19.25;;;5.60;99.90;;;;;;5018023;28;20187;-84
2022/01/07 08:25:42;;;;;;;42.70;21.80;;;5.50;99.90;;;;;;5033860;28;20091;-83
2022/01/07 08:28:09;;;;;;;45.72;20.73;;;5.50;99.90;;;;;;5017944;28;20045;-83
2022/01/07 08:30:58;;;;;;;41.63;22.27;;;5.50;99.90;;;;;;5018076;28;20404;-83
2022/01/07 08:36:04;;;;;;;37.38;19.70;;;5.60;99.90;;;;;;5020461;28;20060;-84
2022/01/07 08:38:30;;;;;;;34.35;18.95;;;5.60;99.90;;;;;;5017563;28;20052;-84
2022/01/07 08:40:56;;;;;;;35.70;19.20;;;5.50;99.90;;;;;;5017907;28;20083;-84
2022/01/07 08:43:21;;;;;;;43.47;22.02;;;5.60;99.90;;;;;;5017866;28;20067;-84
2022/01/07 08:45:47;;;;;;;39.35;21.35;;;5.50;99.90;;;;;;5033947;28;20041;-85
2022/01/07 08:48:13;;;;;;;46.75;22.98;;;5.60;99.90;;;;;;5017876;28;20060;-83
2022/01/07 08:50:38;;;;;;;36.65;20.17;;;5.60;99.90;;;;;;5017450;28;20400;-75
2022/01/07 08:53:04;;;;;;;32.78;19.40;;;5.70;99.90;;;;;;5034103;28;20053;-75
2022/01/07 08:55:30;;;;;;;40.47;21.27;;;5.70;99.90;;;;;;5036694;28;20049;-75
2022/01/07 08:57:55;;;;;;;38.80;19.27;;;5.80;99.90;;;;;;5057262;28;20052;-76
2022/01/07 09:00:21;;;;;;;37.35;19.65;;;5.80;99.90;;;;;;5035788;28;20183;-78
2022/01/07 09:02:47;;;;;;;39.70;20.67;;;5.90;99.90;;;;;;5033788;28;20088;-78
2022/01/07 09:05:13;;;;;;;37.90;19.63;;;6.00;99.90;;;;;;5033133;28;20093;-78
2022/01/07 09:07:38;;;;;;;37.25;21.33;;;6.00;99.90;;;;;;5050450;28;20064;-78
2022/01/07 09:10:04;;;;;;;46.15;21.42;;;6.00;99.90;;;;;;5033314;28;20512;-78
2022/01/07 09:12:30;;;;;;;42.42;21.95;;;6.00;99.90;;;;;;5050133;28;20477;-79
2022/01/07 09:14:56;;;;;;;47.47;22.73;;;6.00;99.90;;;;;;5033494;28;20049;-79
2022/01/07 09:17:22;;;;;;;36.67;17.70;;;6.00;99.90;;;;;;5033089;28;20485;-79
2022/01/07 09:19:48;;;;;;;41.70;20.02;;;6.00;99.90;;;;;;5033138;28;20041;-80
2022/01/07 09:22:14;;;;;;;38.55;21.52;;;6.00;99.90;;;;;;5016652;28;20076;-79
2022/01/07 09:24:40;;;;;;;47.85;21.90;;;5.90;99.90;;;;;;5032751;28;20156;-79
2022/01/07 09:27:05;;;;;;;42.75;19.05;;;5.90;99.90;;;;;;5033232;28;20052;-79
2022/01/07 09:29:31;;;;;;;39.80;21.08;;;5.90;99.90;;;;;;5033042;28;20053;-79
2022/01/07 09:31:57;;;;;;;43.33;20.38;;;6.00;99.90;;;;;;5016603;28;20064;-78
2022/01/07 09:34:22;;;;;;;47.55;23.63;;;5.90;99.90;;;;;;5033007;28;20049;-79
2022/01/07 09:36:48;;;;;;;52.72;23.63;;;6.10;99.90;;;;;;5033075;28;20045;-78
2022/01/07 09:39:14;;;;;;;51.70;23.88;;;6.10;99.90;;;;;;5034356;28;20087;-79
2022/01/07 09:41:40;;;;;;;42.55;22.42;;;6.20;99.90;;;;;;5033014;28;20103;-79
2022/01/07 09:44:10;;;;;;;39.45;20.27;;;6.30;99.90;;;;;;5032771;28;20481;-78
2022/01/07 09:46:36;;;;;;;47.40;22.35;;;6.20;99.90;;;;;;5016498;28;20080;-79
2022/01/07 09:49:04;;;;;;;43.17;21.65;;;6.20;99.90;;;;;;5032903;28;20122;-79
2022/01/07 09:51:30;;;;;;;46.97;21.88;;;6.20;99.90;;;;;;5016330;28;20042;-79
2022/01/07 09:53:56;;;;;;;40.28;20.50;;;6.30;99.90;;;;;;5032920;28;20053;-78
2022/01/07 09:56:22;;;;;;;45.10;21.75;;;6.30;99.90;;;;;;5032065;28;20377;-80
2022/01/07 09:58:47;;;;;;;47.08;23.00;;;6.50;99.90;;;;;;5000010;28;20045;-79
2022/01/07 10:01:19;;;;;;;48.85;22.42;;;6.40;99.90;;;;;;5032646;28;20056;-80
2022/01/07 10:03:45;;;;;;;36.67;19.92;;;6.40;99.90;;;;;;5032767;28;20136;-78
2022/01/07 10:06:26;;;;;;;38.72;19.63;;;6.30;99.90;;;;;;5016104;28;20066;-77
2022/01/07 10:09:05;;;;;;;39.33;16.55;;;6.30;99.90;;;;;;5033510;28;20053;-77
2022/01/07 10:11:31;;;;;;;25.23;12.55;;;6.20;99.90;;;;;;5033007;28;20061;-77
2022/01/07 10:14:22;;;;;;;15.57;6.97;;;6.10;99.90;;;;;;5038343;28;20445;-77
2022/01/07 10:16:54;;;;;;;13.43;5.13;;;5.90;99.90;;;;;;5039387;28;20435;-77
2022/01/07 10:19:39;;;;;;;11.00;4.53;;;5.70;99.90;;;;;;5039425;28;20085;-78
2022/01/07 10:22:11;;;;;;;10.20;5.30;;;5.60;99.90;;;;;;5039445;28;20041;-78
2022/01/07 10:24:56;;;;;;;11.57;6.10;;;5.60;99.90;;;;;;5038323;28;20045;-77
2022/01/07 10:27:24;;;;;;;15.45;7.57;;;5.70;99.90;;;;;;5039914;28;20052;-77
2022/01/07 10:29:50;;;;;;;16.00;8.20;;;5.80;99.90;;;;;;5039042;28;20037;-79
2022/01/07 10:32:30;;;;;;;14.52;7.85;;;5.90;99.90;;;;;;5038762;28;20087;-72
2022/01/07 10:35:07;;;;;;;16.27;7.50;;;6.00;99.90;;;;;;5038966;28;20477;-76
2022/01/07 10:37:34;;;;;;;11.90;6.53;;;5.90;99.90;;;;;;5038720;28;20554;-76
2022/01/07 10:40:00;;;;;;;11.57;6.43;;;6.00;99.90;;;;;;5039052;28;20049;-75
2022/01/07 10:42:27;;;;;;;10.68;4.38;;;6.20;99.90;;;;;;5038985;28;20488;-76
2022/01/07 10:45:06;;;;;;;9.63;3.67;;;6.40;99.90;;;;;;5038752;28;20038;-77
2022/01/07 10:47:31;;;;;;;8.13;3.95;;;6.70;99.90;;;;;;5039535;28;20457;-77
2022/01/07 10:50:27;;;;;;;8.68;3.80;;;7.00;99.90;;;;;;5022426;28;20087;-75
2022/01/07 10:53:17;;;;;;;10.57;4.00;;;7.10;99.90;;;;;;5030494;28;20068;-77
2022/01/07 10:56:01;;;;;;;5.85;2.90;;;7.30;99.90;;;;;;5038436;28;20136;-77
2022/01/07 10:58:28;;;;;;;8.50;2.42;;;7.30;99.90;;;;;;5038908;28;20092;-76
2022/01/07 11:00:53;;;;;;;5.85;2.35;;;7.10;99.90;;;;;;5038822;28;20056;-74
2022/01/07 11:03:19;;;;;;;7.70;2.28;;;7.10;99.90;;;;;;5038833;28;20388;-75
2022/01/07 11:05:45;;;;;;;4.65;1.88;;;7.00;99.90;;;;;;5038248;28;20057;-76
2022/01/07 11:08:14;;;;;;;4.47;1.42;;;6.90;99.90;;;;;;5039971;28;20381;-76
2022/01/07 11:10:41;;;;;;;5.32;2.03;;;6.90;99.90;;;;;;5038695;28;20053;-78
2022/01/07 11:13:08;;;;;;;7.18;2.78;;;7.00;99.90;;;;;;5039100;28;20103;-78
2022/01/07 11:15:36;;;;;;;5.45;2.22;;;6.80;99.90;;;;;;5023179;28;20092;-78
2022/01/07 11:18:02;;;;;;;7.93;2.10;;;6.90;99.90;;;;;;5038873;28;20500;-76
2022/01/07 11:20:27;;;;;;;8.32;2.70;;;6.90;99.90;;;;;;5021978;28;20037;-78
2022/01/07 11:22:54;;;;;;;7.47;2.90;;;6.80;99.90;;;;;;5038643;28;20045;-77
2022/01/07 11:25:29;;;;;;;9.43;3.25;;;6.90;99.90;;;;;;5035287;28;20077;-81
2022/01/07 11:27:57;;;;;;;8.55;3.70;;;6.90;99.90;;;;;;5035557;28;20087;-78
2022/01/07 11:30:28;;;;;;;8.10;3.65;;;6.90;99.90;;;;;;5035072;28;20083;-77
2022/01/07 11:32:54;;;;;;;11.98;4.90;;;6.80;99.90;;;;;;5035909;28;20064;-78
2022/01/07 11:35:20;;;;;;;19.58;5.03;;;6.80;99.90;;;;;;5035534;28;20057;-91
2022/01/07 11:37:51;;;;;;;11.98;5.18;;;6.60;99.90;;;;;;5033812;28;20558;-75
2022/01/07 11:40:31;;;;;;;15.30;5.47;;;6.60;99.90;;;;;;5020078;28;20443;-72
2022/01/07 11:43:06;;;;;;;16.15;7.07;;;6.80;99.90;;;;;;5048216;28;20041;-71
2022/01/07 11:45:35;;;;;;;14.77;6.20;;;7.10;99.90;;;;;;5030504;28;20041;-73
2022/01/07 11:48:20;;;;;;;12.18;5.95;;;7.30;99.90;;;;;;5034765;28;20499;-82
2022/01/07 11:51:05;;;;;;;15.27;5.63;;;7.20;99.90;;;;;;5018409;28;20057;-80
2022/01/07 11:53:39;;;;;;;12.93;5.57;;;7.20;99.90;;;;;;5035199;28;20488;-79
2022/01/07 11:56:06;;;;;;;14.82;5.95;;;7.30;99.90;;;;;;5034688;28;20053;-86
2022/01/07 11:58:42;;;;;;;12.23;6.10;;;7.10;99.90;;;;;;5034256;28;20083;-84
2022/01/07 12:01:28;;;;;;;16.42;5.95;;;7.30;99.90;;;;;;5034869;28;20072;-84
2022/01/07 12:03:59;;;;;;;13.37;6.30;;;7.20;99.90;;;;;;5034986;28;20053;-85
2022/01/07 12:06:29;;;;;;;14.35;5.93;;;7.00;99.90;;;;;;5034077;28;20504;-87
2022/01/07 12:09:03;;;;;;;12.32;6.68;;;6.80;99.90;;;;;;5035081;28;20049;-87
2022/01/07 12:11:36;;;;;;;17.75;7.10;;;6.90;99.90;;;;;;5018367;28;20443;-88
2022/01/07 12:14:23;;;;;;;17.75;6.85;;;7.00;99.90;;;;;;5035087;28;20118;-86
2022/01/07 12:16:52;;;;;;;17.95;7.78;;;7.20;99.90;;;;;;5034773;28;20049;-85
2022/01/07 12:19:18;;;;;;;16.50;7.65;;;7.00;99.90;;;;;;5018329;28;20049;-85
2022/01/07 12:21:49;;;;;;;15.48;7.95;;;7.10;99.90;;;;;;5034553;28;20053;-85
2022/01/07 12:24:24;;;;;;;24.50;9.00;;;7.20;99.90;;;;;;5042985;28;20045;-85
2022/01/07 12:27:08;;;;;;;18.42;7.68;;;7.30;99.90;;;;;;5036304;28;20067;-72
2022/01/07 12:29:36;;;;;;;19.05;8.80;;;6.90;99.90;;;;;;5034571;28;20053;-75
2022/01/07 12:32:04;;;;;;;17.63;9.07;;;6.80;99.90;;;;;;5034408;28;20056;-75
2022/01/07 12:34:35;;;;;;;22.48;9.00;;;6.70;99.90;;;;;;5017942;28;20053;-72
2022/01/07 12:37:06;;;;;;;19.00;7.90;;;6.80;99.90;;;;;;5033951;28;20053;-76
2022/01/07 12:39:42;;;;;;;14.82;5.55;;;7.00;99.90;;;;;;5034490;28;20041;-74
2022/01/07 12:42:09;;;;;;;11.17;4.50;;;7.40;99.90;;;;;;5034556;28;20054;-74
2022/01/07 12:44:44;;;;;;;10.63;3.80;;;7.80;99.90;;;;;;5033964;28;20484;-74
2022/01/07 12:47:14;;;;;;;8.23;3.95;;;8.30;99.60;;;;;;5033969;28;20059;-75
2022/01/07 12:49:51;;;;;;;9.57;3.55;;;8.20;99.00;;;;;;5034231;28;20370;-75
2022/01/07 12:52:23;;;;;;;6.22;2.78;;;8.00;99.50;;;;;;5034089;28;20085;-71
2022/01/07 12:54:59;;;;;;;9.40;3.13;;;7.70;98.90;;;;;;5034112;28;20483;-71
2022/01/07 12:57:28;;;;;;;;;;;7.30;99.20;;;;;;5039899;28;20060;-74
2022/01/07 13:00:06;;;;;;;8.80;2.33;;;7.40;99.70;;;;;;5034003;28;19921;-74